sensor_id;sensor_type;location;lat;lon;timestamp;P1;durP1;ratioP1;P2;durP2;ratioP2
57047;SDS011;42934;54.294;18.598;2022-12-29T00:01:05;9.07;;;6.68;;
57047;SDS011;42934;54.294;18.598;2022-12-29T00:03:35;13.95;;;7.30;;
57047;SDS011;42934;54.294;18.598;2022-12-29T00:06:05;9.88;;;6.65;;
57047;SDS011;42934;54.294;18.598;2022-12-29T00:08:34;10.33;;;6.47;;
57047;SDS011;42934;54.294;18.598;2022-12-29T00:11:11;10.07;;;6.57;;
57047;SDS011;42934;54.294;18.598;2022-12-29T00:13:43;7.80;;;5.63;;
57047;SDS011;42934;54.294;18.598;2022-12-29T00:16:30;7.43;;;5.45;;
57047;SDS011;42934;54.294;18.598;2022-12-29T00:21:30;7.85;;;5.28;;
57047;SDS011;42934;54.294;18.598;2022-12-29T00:24:18;12.00;;;5.70;;
57047;SDS011;42934;54.294;18.598;2022-12-29T00:27:10;7.25;;;5.45;;
57047;SDS011;42934;54.294;18.598;2022-12-29T00:29:59;7.72;;;5.03;;
57047;SDS011;42934;54.294;18.598;2022-12-29T00:32:46;7.47;;;4.70;;
57047;SDS011;42934;54.294;18.598;2022-12-29T00:35:33;8.18;;;5.43;;
57047;SDS011;42934;54.294;18.598;2022-12-29T00:38:07;5.15;;;4.47;;
57047;SDS011;42934;54.294;18.598;2022-12-29T00:40:55;7.45;;;4.72;;
57047;SDS011;42934;54.294;18.598;2022-12-29T00:43:43;7.47;;;4.35;;
57047;SDS011;42934;54.294;18.598;2022-12-29T00:46:32;6.90;;;4.57;;
57047;SDS011;42934;54.294;18.598;2022-12-29T00:49:02;4.63;;;3.92;;
57047;SDS011;42934;54.294;18.598;2022-12-29T00:51:49;5.80;;;4.30;;
57047;SDS011;42934;54.294;18.598;2022-12-29T00:56:49;4.85;;;4.18;;
57047;SDS011;42934;54.294;18.598;2022-12-29T00:59:20;4.93;;;3.60;;
57047;SDS011;42934;54.294;18.598;2022-12-29T01:01:52;7.25;;;4.25;;
57047;SDS011;42934;54.294;18.598;2022-12-29T01:04:24;5.57;;;3.80;;
57047;SDS011;42934;54.294;18.598;2022-12-29T01:06:54;9.90;;;4.00;;
57047;SDS011;42934;54.294;18.598;2022-12-29T01:09:24;6.25;;;4.13;;
57047;SDS011;42934;54.294;18.598;2022-12-29T01:12:11;6.10;;;4.10;;
57047;SDS011;42934;54.294;18.598;2022-12-29T01:14:40;7.45;;;4.47;;
57047;SDS011;42934;54.294;18.598;2022-12-29T01:17:11;4.88;;;4.10;;
57047;SDS011;42934;54.294;18.598;2022-12-29T01:19:41;5.32;;;3.75;;
57047;SDS011;42934;54.294;18.598;2022-12-29T01:22:10;7.33;;;4.20;;
57047;SDS011;42934;54.294;18.598;2022-12-29T01:24:40;4.78;;;3.78;;
57047;SDS011;42934;54.294;18.598;2022-12-29T01:27:12;6.40;;;3.97;;
57047;SDS011;42934;54.294;18.598;2022-12-29T01:29:41;5.00;;;3.88;;
57047;SDS011;42934;54.294;18.598;2022-12-29T01:32:12;6.00;;;3.72;;
57047;SDS011;42934;54.294;18.598;2022-12-29T01:34:44;4.70;;;3.63;;
57047;SDS011;42934;54.294;18.598;2022-12-29T01:37:13;4.68;;;3.92;;
57047;SDS011;42934;54.294;18.598;2022-12-29T01:39:44;6.03;;;3.28;;
57047;SDS011;42934;54.294;18.598;2022-12-29T01:42:14;4.65;;;3.60;;
57047;SDS011;42934;54.294;18.598;2022-12-29T01:44:48;4.40;;;3.70;;
57047;SDS011;42934;54.294;18.598;2022-12-29T01:47:22;4.50;;;3.28;;
57047;SDS011;42934;54.294;18.598;2022-12-29T01:49:58;5.30;;;3.00;;
57047;SDS011;42934;54.294;18.598;2022-12-29T01:52:33;3.85;;;3.10;;
57047;SDS011;42934;54.294;18.598;2022-12-29T01:55:07;5.60;;;3.03;;
57047;SDS011;42934;54.294;18.598;2022-12-29T01:57:40;3.72;;;2.97;;
57047;SDS011;42934;54.294;18.598;2022-12-29T02:00:14;6.22;;;3.63;;
57047;SDS011;42934;54.294;18.598;2022-12-29T02:02:49;3.83;;;2.83;;
57047;SDS011;42934;54.294;18.598;2022-12-29T02:05:23;3.58;;;2.75;;
57047;SDS011;42934;54.294;18.598;2022-12-29T02:07:57;3.95;;;2.50;;
57047;SDS011;42934;54.294;18.598;2022-12-29T02:10:28;3.55;;;2.60;;
57047;SDS011;42934;54.294;18.598;2022-12-29T02:13:01;3.03;;;2.70;;
57047;SDS011;42934;54.294;18.598;2022-12-29T02:15:34;3.53;;;2.88;;
57047;SDS011;42934;54.294;18.598;2022-12-29T02:18:29;3.33;;;2.50;;
57047;SDS011;42934;54.294;18.598;2022-12-29T02:27:29;3.08;;;2.33;;
57047;SDS011;42934;54.294;18.598;2022-12-29T02:33:19;2.88;;;2.45;;
57047;SDS011;42934;54.294;18.598;2022-12-29T02:35:56;2.65;;;2.42;;
57047;SDS011;42934;54.294;18.598;2022-12-29T02:38:40;2.85;;;2.50;;
57047;SDS011;42934;54.294;18.598;2022-12-29T02:41:19;3.90;;;2.60;;
57047;SDS011;42934;54.294;18.598;2022-12-29T02:43:59;4.20;;;2.97;;
57047;SDS011;42934;54.294;18.598;2022-12-29T02:46:37;4.60;;;2.47;;
57047;SDS011;42934;54.294;18.598;2022-12-29T02:49:15;2.72;;;2.50;;
57047;SDS011;42934;54.294;18.598;2022-12-29T02:51:50;2.97;;;2.53;;
57047;SDS011;42934;54.294;18.598;2022-12-29T02:54:24;4.00;;;3.10;;
57047;SDS011;42934;54.294;18.598;2022-12-29T02:57:10;5.47;;;2.80;;
57047;SDS011;42934;54.294;18.598;2022-12-29T02:59:44;3.42;;;2.85;;
57047;SDS011;42934;54.294;18.598;2022-12-29T03:02:22;3.60;;;3.03;;
57047;SDS011;42934;54.294;18.598;2022-12-29T03:05:19;4.50;;;3.08;;
57047;SDS011;42934;54.294;18.598;2022-12-29T03:08:03;4.45;;;2.90;;
57047;SDS011;42934;54.294;18.598;2022-12-29T03:10:41;6.85;;;4.05;;
57047;SDS011;42934;54.294;18.598;2022-12-29T03:13:19;5.07;;;3.80;;
57047;SDS011;42934;54.294;18.598;2022-12-29T03:16:14;5.10;;;3.60;;
57047;SDS011;42934;54.294;18.598;2022-12-29T03:18:54;4.63;;;3.63;;
57047;SDS011;42934;54.294;18.598;2022-12-29T03:21:30;6.93;;;4.18;;
57047;SDS011;42934;54.294;18.598;2022-12-29T03:24:22;5.30;;;4.07;;
57047;SDS011;42934;54.294;18.598;2022-12-29T03:26:56;5.03;;;4.03;;
57047;SDS011;42934;54.294;18.598;2022-12-29T03:29:35;6.13;;;4.63;;
57047;SDS011;42934;54.294;18.598;2022-12-29T03:32:09;7.18;;;4.80;;
57047;SDS011;42934;54.294;18.598;2022-12-29T03:34:46;5.68;;;4.75;;
57047;SDS011;42934;54.294;18.598;2022-12-29T03:37:17;9.07;;;5.97;;
57047;SDS011;42934;54.294;18.598;2022-12-29T03:39:50;6.95;;;5.45;;
57047;SDS011;42934;54.294;18.598;2022-12-29T03:42:21;8.10;;;6.35;;
57047;SDS011;42934;54.294;18.598;2022-12-29T03:44:52;6.78;;;5.72;;
57047;SDS011;42934;54.294;18.598;2022-12-29T03:47:24;9.05;;;6.10;;
57047;SDS011;42934;54.294;18.598;2022-12-29T03:49:55;6.38;;;5.60;;
57047;SDS011;42934;54.294;18.598;2022-12-29T03:52:25;6.57;;;5.63;;
57047;SDS011;42934;54.294;18.598;2022-12-29T03:54:55;12.75;;;7.38;;
57047;SDS011;42934;54.294;18.598;2022-12-29T03:57:24;7.90;;;6.22;;
57047;SDS011;42934;54.294;18.598;2022-12-29T04:00:00;10.32;;;6.85;;
57047;SDS011;42934;54.294;18.598;2022-12-29T04:05:17;10.00;;;6.50;;
57047;SDS011;42934;54.294;18.598;2022-12-29T04:07:48;10.70;;;6.97;;
57047;SDS011;42934;54.294;18.598;2022-12-29T04:10:17;11.43;;;7.40;;
57047;SDS011;42934;54.294;18.598;2022-12-29T04:12:50;9.48;;;7.60;;
57047;SDS011;42934;54.294;18.598;2022-12-29T04:15:21;11.60;;;7.85;;
57047;SDS011;42934;54.294;18.598;2022-12-29T04:17:53;11.52;;;7.68;;
57047;SDS011;42934;54.294;18.598;2022-12-29T04:20:24;10.60;;;7.90;;
57047;SDS011;42934;54.294;18.598;2022-12-29T04:23:12;12.13;;;8.75;;
57047;SDS011;42934;54.294;18.598;2022-12-29T04:25:44;11.20;;;8.25;;
57047;SDS011;42934;54.294;18.598;2022-12-29T04:28:15;10.32;;;7.45;;
57047;SDS011;42934;54.294;18.598;2022-12-29T04:30:45;11.75;;;8.10;;
57047;SDS011;42934;54.294;18.598;2022-12-29T04:33:19;11.48;;;8.07;;
57047;SDS011;42934;54.294;18.598;2022-12-29T04:35:50;11.02;;;8.18;;
57047;SDS011;42934;54.294;18.598;2022-12-29T04:38:22;12.07;;;8.60;;
57047;SDS011;42934;54.294;18.598;2022-12-29T04:40:53;16.15;;;8.88;;
57047;SDS011;42934;54.294;18.598;2022-12-29T04:43:23;19.05;;;9.98;;
57047;SDS011;42934;54.294;18.598;2022-12-29T04:46:13;18.63;;;9.43;;
57047;SDS011;42934;54.294;18.598;2022-12-29T04:49:10;17.15;;;8.82;;
57047;SDS011;42934;54.294;18.598;2022-12-29T04:52:07;19.90;;;9.63;;
57047;SDS011;42934;54.294;18.598;2022-12-29T04:54:38;16.08;;;9.45;;
57047;SDS011;42934;54.294;18.598;2022-12-29T04:57:13;20.08;;;9.20;;
57047;SDS011;42934;54.294;18.598;2022-12-29T04:59:48;18.15;;;10.38;;
57047;SDS011;42934;54.294;18.598;2022-12-29T05:02:18;19.50;;;10.02;;
57047;SDS011;42934;54.294;18.598;2022-12-29T05:04:49;15.73;;;9.25;;
57047;SDS011;42934;54.294;18.598;2022-12-29T05:07:20;12.77;;;8.68;;
57047;SDS011;42934;54.294;18.598;2022-12-29T05:09:50;12.60;;;8.65;;
57047;SDS011;42934;54.294;18.598;2022-12-29T05:12:20;16.88;;;9.35;;
57047;SDS011;42934;54.294;18.598;2022-12-29T05:14:57;15.93;;;9.27;;
57047;SDS011;42934;54.294;18.598;2022-12-29T05:17:27;12.02;;;8.65;;
57047;SDS011;42934;54.294;18.598;2022-12-29T05:19:57;12.63;;;8.52;;
57047;SDS011;42934;54.294;18.598;2022-12-29T05:22:29;16.73;;;9.48;;
57047;SDS011;42934;54.294;18.598;2022-12-29T05:24:59;14.65;;;9.40;;
57047;SDS011;42934;54.294;18.598;2022-12-29T05:27:29;10.93;;;8.70;;
57047;SDS011;42934;54.294;18.598;2022-12-29T05:30:17;11.77;;;8.50;;
57047;SDS011;42934;54.294;18.598;2022-12-29T05:32:46;14.57;;;9.27;;
57047;SDS011;42934;54.294;18.598;2022-12-29T05:35:17;13.80;;;8.68;;
57047;SDS011;42934;54.294;18.598;2022-12-29T05:37:48;14.10;;;8.40;;
57047;SDS011;42934;54.294;18.598;2022-12-29T05:40:18;13.77;;;8.85;;
57047;SDS011;42934;54.294;18.598;2022-12-29T05:42:47;13.85;;;8.82;;
57047;SDS011;42934;54.294;18.598;2022-12-29T05:45:35;11.40;;;7.70;;
57047;SDS011;42934;54.294;18.598;2022-12-29T05:48:28;13.98;;;9.50;;
57047;SDS011;42934;54.294;18.598;2022-12-29T05:51:18;13.18;;;8.30;;
57047;SDS011;42934;54.294;18.598;2022-12-29T05:53:52;15.75;;;8.80;;
57047;SDS011;42934;54.294;18.598;2022-12-29T05:56:22;13.10;;;8.30;;
57047;SDS011;42934;54.294;18.598;2022-12-29T05:58:57;13.27;;;9.30;;
57047;SDS011;42934;54.294;18.598;2022-12-29T06:01:27;13.30;;;8.88;;
57047;SDS011;42934;54.294;18.598;2022-12-29T06:03:57;14.13;;;9.25;;
57047;SDS011;42934;54.294;18.598;2022-12-29T06:06:27;10.63;;;8.77;;
57047;SDS011;42934;54.294;18.598;2022-12-29T06:08:58;12.25;;;8.85;;
57047;SDS011;42934;54.294;18.598;2022-12-29T06:11:28;13.77;;;8.88;;
57047;SDS011;42934;54.294;18.598;2022-12-29T06:13:59;15.27;;;8.63;;
57047;SDS011;42934;54.294;18.598;2022-12-29T06:16:29;15.50;;;8.35;;
57047;SDS011;42934;54.294;18.598;2022-12-29T06:19:00;12.68;;;8.70;;
57047;SDS011;42934;54.294;18.598;2022-12-29T06:21:30;11.10;;;7.97;;
57047;SDS011;42934;54.294;18.598;2022-12-29T06:24:02;12.63;;;8.68;;
57047;SDS011;42934;54.294;18.598;2022-12-29T06:26:34;13.65;;;8.40;;
57047;SDS011;42934;54.294;18.598;2022-12-29T06:29:03;13.27;;;8.48;;
57047;SDS011;42934;54.294;18.598;2022-12-29T06:34:03;13.57;;;7.68;;
57047;SDS011;42934;54.294;18.598;2022-12-29T06:36:36;12.63;;;9.30;;
57047;SDS011;42934;54.294;18.598;2022-12-29T06:39:07;13.00;;;8.55;;
57047;SDS011;42934;54.294;18.598;2022-12-29T06:41:36;12.93;;;8.52;;
57047;SDS011;42934;54.294;18.598;2022-12-29T06:44:21;15.30;;;8.30;;
57047;SDS011;42934;54.294;18.598;2022-12-29T06:46:56;14.77;;;8.18;;
57047;SDS011;42934;54.294;18.598;2022-12-29T06:49:25;14.13;;;8.70;;
57047;SDS011;42934;54.294;18.598;2022-12-29T06:51:55;12.30;;;7.50;;
57047;SDS011;42934;54.294;18.598;2022-12-29T06:54:28;14.52;;;9.00;;
57047;SDS011;42934;54.294;18.598;2022-12-29T06:56:59;14.48;;;8.80;;
57047;SDS011;42934;54.294;18.598;2022-12-29T06:59:29;16.10;;;9.48;;
57047;SDS011;42934;54.294;18.598;2022-12-29T07:01:59;13.25;;;8.40;;
57047;SDS011;42934;54.294;18.598;2022-12-29T07:04:29;14.40;;;7.60;;
57047;SDS011;42934;54.294;18.598;2022-12-29T07:06:59;13.13;;;8.50;;
57047;SDS011;42934;54.294;18.598;2022-12-29T07:09:30;12.13;;;7.50;;
57047;SDS011;42934;54.294;18.598;2022-12-29T07:12:00;12.80;;;8.45;;
57047;SDS011;42934;54.294;18.598;2022-12-29T07:14:29;12.02;;;8.07;;
57047;SDS011;42934;54.294;18.598;2022-12-29T07:17:08;12.00;;;8.30;;
57047;SDS011;42934;54.294;18.598;2022-12-29T07:19:38;15.23;;;7.80;;
57047;SDS011;42934;54.294;18.598;2022-12-29T07:22:07;9.75;;;7.15;;
57047;SDS011;42934;54.294;18.598;2022-12-29T07:24:39;11.35;;;7.20;;
57047;SDS011;42934;54.294;18.598;2022-12-29T07:27:10;11.50;;;8.13;;
57047;SDS011;42934;54.294;18.598;2022-12-29T07:29:39;12.20;;;7.80;;
57047;SDS011;42934;54.294;18.598;2022-12-29T07:32:09;12.30;;;7.55;;
57047;SDS011;42934;54.294;18.598;2022-12-29T07:34:39;16.50;;;8.07;;
57047;SDS011;42934;54.294;18.598;2022-12-29T07:37:08;12.68;;;8.18;;
57047;SDS011;42934;54.294;18.598;2022-12-29T07:39:39;12.87;;;7.83;;
57047;SDS011;42934;54.294;18.598;2022-12-29T07:42:09;13.95;;;8.02;;
57047;SDS011;42934;54.294;18.598;2022-12-29T07:44:43;10.05;;;7.65;;
57047;SDS011;42934;54.294;18.598;2022-12-29T07:47:30;14.02;;;8.13;;
57047;SDS011;42934;54.294;18.598;2022-12-29T07:50:00;12.88;;;8.35;;
57047;SDS011;42934;54.294;18.598;2022-12-29T07:52:29;10.77;;;7.63;;
57047;SDS011;42934;54.294;18.598;2022-12-29T07:55:00;16.45;;;9.98;;
57047;SDS011;42934;54.294;18.598;2022-12-29T07:57:30;13.75;;;8.60;;
57047;SDS011;42934;54.294;18.598;2022-12-29T07:59:59;10.30;;;7.77;;
57047;SDS011;42934;54.294;18.598;2022-12-29T08:02:37;11.07;;;7.72;;
57047;SDS011;42934;54.294;18.598;2022-12-29T08:05:07;16.20;;;9.50;;
57047;SDS011;42934;54.294;18.598;2022-12-29T08:07:37;12.75;;;8.20;;
57047;SDS011;42934;54.294;18.598;2022-12-29T08:10:08;11.77;;;7.43;;
57047;SDS011;42934;54.294;18.598;2022-12-29T08:12:38;11.27;;;7.75;;
57047;SDS011;42934;54.294;18.598;2022-12-29T08:15:09;13.05;;;8.32;;
57047;SDS011;42934;54.294;18.598;2022-12-29T08:17:40;13.57;;;7.85;;
57047;SDS011;42934;54.294;18.598;2022-12-29T08:20:09;15.83;;;8.23;;
57047;SDS011;42934;54.294;18.598;2022-12-29T08:22:39;11.43;;;7.68;;
57047;SDS011;42934;54.294;18.598;2022-12-29T08:25:10;11.48;;;8.10;;
57047;SDS011;42934;54.294;18.598;2022-12-29T08:27:40;9.75;;;7.80;;
57047;SDS011;42934;54.294;18.598;2022-12-29T08:30:10;10.73;;;7.83;;
57047;SDS011;42934;54.294;18.598;2022-12-29T08:32:40;10.65;;;7.65;;
57047;SDS011;42934;54.294;18.598;2022-12-29T08:35:10;14.50;;;10.00;;
57047;SDS011;42934;54.294;18.598;2022-12-29T08:37:39;11.30;;;8.75;;
57047;SDS011;42934;54.294;18.598;2022-12-29T08:40:11;10.63;;;8.00;;
57047;SDS011;42934;54.294;18.598;2022-12-29T08:42:41;13.35;;;8.18;;
57047;SDS011;42934;54.294;18.598;2022-12-29T08:45:11;11.40;;;7.30;;
57047;SDS011;42934;54.294;18.598;2022-12-29T08:47:41;11.20;;;8.07;;
57047;SDS011;42934;54.294;18.598;2022-12-29T08:50:10;13.50;;;8.57;;
57047;SDS011;42934;54.294;18.598;2022-12-29T08:52:40;10.52;;;7.85;;
57047;SDS011;42934;54.294;18.598;2022-12-29T08:55:11;12.98;;;8.43;;
57047;SDS011;42934;54.294;18.598;2022-12-29T08:57:41;11.10;;;7.80;;
57047;SDS011;42934;54.294;18.598;2022-12-29T09:00:16;9.25;;;7.55;;
57047;SDS011;42934;54.294;18.598;2022-12-29T09:02:47;10.60;;;7.03;;
57047;SDS011;42934;54.294;18.598;2022-12-29T09:05:17;10.85;;;7.43;;
57047;SDS011;42934;54.294;18.598;2022-12-29T09:07:46;9.20;;;7.43;;
57047;SDS011;42934;54.294;18.598;2022-12-29T09:10:17;9.90;;;7.07;;
57047;SDS011;42934;54.294;18.598;2022-12-29T09:12:47;10.90;;;7.18;;
57047;SDS011;42934;54.294;18.598;2022-12-29T09:15:17;10.27;;;7.30;;
57047;SDS011;42934;54.294;18.598;2022-12-29T09:17:46;12.25;;;7.28;;
57047;SDS011;42934;54.294;18.598;2022-12-29T09:20:16;9.67;;;7.13;;
57047;SDS011;42934;54.294;18.598;2022-12-29T09:22:47;9.82;;;7.97;;
57047;SDS011;42934;54.294;18.598;2022-12-29T09:25:18;12.68;;;6.72;;
57047;SDS011;42934;54.294;18.598;2022-12-29T09:27:51;10.50;;;6.90;;
57047;SDS011;42934;54.294;18.598;2022-12-29T09:30:21;10.60;;;7.45;;
57047;SDS011;42934;54.294;18.598;2022-12-29T09:32:52;9.32;;;7.28;;
57047;SDS011;42934;54.294;18.598;2022-12-29T09:35:22;9.10;;;6.80;;
57047;SDS011;42934;54.294;18.598;2022-12-29T09:37:51;11.00;;;7.57;;
57047;SDS011;42934;54.294;18.598;2022-12-29T09:40:26;11.98;;;7.43;;
57047;SDS011;42934;54.294;18.598;2022-12-29T09:43:02;12.10;;;7.68;;
57047;SDS011;42934;54.294;18.598;2022-12-29T09:45:53;8.40;;;6.68;;
57047;SDS011;42934;54.294;18.598;2022-12-29T09:48:32;11.00;;;7.25;;
57047;SDS011;42934;54.294;18.598;2022-12-29T09:51:08;10.10;;;7.25;;
57047;SDS011;42934;54.294;18.598;2022-12-29T09:53:42;10.68;;;7.15;;
57047;SDS011;42934;54.294;18.598;2022-12-29T09:56:16;9.43;;;6.90;;
57047;SDS011;42934;54.294;18.598;2022-12-29T09:58:51;12.57;;;7.28;;
57047;SDS011;42934;54.294;18.598;2022-12-29T10:01:30;16.52;;;7.20;;
57047;SDS011;42934;54.294;18.598;2022-12-29T10:04:05;9.90;;;7.10;;
57047;SDS011;42934;54.294;18.598;2022-12-29T10:06:37;9.25;;;7.25;;
57047;SDS011;42934;54.294;18.598;2022-12-29T10:09:33;9.95;;;6.63;;
57047;SDS011;42934;54.294;18.598;2022-12-29T10:12:15;8.80;;;6.35;;
57047;SDS011;42934;54.294;18.598;2022-12-29T10:14:58;14.15;;;7.03;;
57047;SDS011;42934;54.294;18.598;2022-12-29T10:17:41;10.80;;;6.30;;
57047;SDS011;42934;54.294;18.598;2022-12-29T10:20:19;8.48;;;6.38;;
57047;SDS011;42934;54.294;18.598;2022-12-29T10:23:07;12.02;;;6.38;;
57047;SDS011;42934;54.294;18.598;2022-12-29T10:25:48;8.98;;;6.00;;
57047;SDS011;42934;54.294;18.598;2022-12-29T10:28:22;8.88;;;5.60;;
57047;SDS011;42934;54.294;18.598;2022-12-29T10:30:52;10.13;;;5.82;;
57047;SDS011;42934;54.294;18.598;2022-12-29T10:33:35;8.52;;;5.22;;
57047;SDS011;42934;54.294;18.598;2022-12-29T10:36:13;7.28;;;5.70;;
57047;SDS011;42934;54.294;18.598;2022-12-29T10:38:47;8.50;;;5.60;;
57047;SDS011;42934;54.294;18.598;2022-12-29T10:41:23;9.13;;;5.18;;
57047;SDS011;42934;54.294;18.598;2022-12-29T10:43:58;9.73;;;5.53;;
57047;SDS011;42934;54.294;18.598;2022-12-29T10:46:30;7.10;;;5.38;;
57047;SDS011;42934;54.294;18.598;2022-12-29T10:49:05;9.13;;;5.55;;
57047;SDS011;42934;54.294;18.598;2022-12-29T10:51:48;8.25;;;5.50;;
57047;SDS011;42934;54.294;18.598;2022-12-29T10:54:23;6.30;;;5.07;;
57047;SDS011;42934;54.294;18.598;2022-12-29T10:57:00;8.05;;;5.25;;
57047;SDS011;42934;54.294;18.598;2022-12-29T10:59:35;8.95;;;5.00;;
57047;SDS011;42934;54.294;18.598;2022-12-29T11:02:13;7.40;;;4.82;;
57047;SDS011;42934;54.294;18.598;2022-12-29T11:05:03;6.47;;;4.90;;
57047;SDS011;42934;54.294;18.598;2022-12-29T11:07:38;9.20;;;5.15;;
57047;SDS011;42934;54.294;18.598;2022-12-29T11:10:18;8.15;;;5.15;;
57047;SDS011;42934;54.294;18.598;2022-12-29T11:12:59;8.13;;;5.10;;
57047;SDS011;42934;54.294;18.598;2022-12-29T11:15:39;10.18;;;5.75;;
57047;SDS011;42934;54.294;18.598;2022-12-29T11:18:20;6.50;;;4.70;;
57047;SDS011;42934;54.294;18.598;2022-12-29T11:20:52;8.23;;;5.20;;
57047;SDS011;42934;54.294;18.598;2022-12-29T11:23:29;7.90;;;5.10;;
57047;SDS011;42934;54.294;18.598;2022-12-29T11:31:53;7.43;;;5.45;;
57047;SDS011;42934;54.294;18.598;2022-12-29T11:34:30;7.55;;;5.03;;
57047;SDS011;42934;54.294;18.598;2022-12-29T11:37:02;9.43;;;5.93;;
57047;SDS011;42934;54.294;18.598;2022-12-29T11:39:37;6.20;;;5.05;;
57047;SDS011;42934;54.294;18.598;2022-12-29T11:42:13;8.13;;;5.32;;
57047;SDS011;42934;54.294;18.598;2022-12-29T11:44:45;6.13;;;5.07;;
57047;SDS011;42934;54.294;18.598;2022-12-29T11:47:23;11.75;;;5.38;;
57047;SDS011;42934;54.294;18.598;2022-12-29T11:52:29;9.35;;;5.20;;
57047;SDS011;42934;54.294;18.598;2022-12-29T11:55:04;7.47;;;5.10;;
57047;SDS011;42934;54.294;18.598;2022-12-29T11:57:44;7.80;;;5.43;;
57047;SDS011;42934;54.294;18.598;2022-12-29T12:02:49;7.15;;;5.40;;
57047;SDS011;42934;54.294;18.598;2022-12-29T12:05:27;9.32;;;5.70;;
57047;SDS011;42934;54.294;18.598;2022-12-29T12:08:07;9.17;;;5.90;;
57047;SDS011;42934;54.294;18.598;2022-12-29T12:10:48;8.45;;;5.45;;
57047;SDS011;42934;54.294;18.598;2022-12-29T12:13:25;8.57;;;5.65;;
57047;SDS011;42934;54.294;18.598;2022-12-29T12:16:02;9.88;;;6.13;;
57047;SDS011;42934;54.294;18.598;2022-12-29T12:18:41;10.02;;;6.32;;
57047;SDS011;42934;54.294;18.598;2022-12-29T12:21:20;7.88;;;5.45;;
57047;SDS011;42934;54.294;18.598;2022-12-29T12:24:04;6.80;;;5.10;;
57047;SDS011;42934;54.294;18.598;2022-12-29T12:26:55;9.18;;;5.80;;
57047;SDS011;42934;54.294;18.598;2022-12-29T12:29:33;9.02;;;5.00;;
57047;SDS011;42934;54.294;18.598;2022-12-29T12:32:10;8.15;;;4.80;;
57047;SDS011;42934;54.294;18.598;2022-12-29T12:34:46;7.68;;;5.15;;
57047;SDS011;42934;54.294;18.598;2022-12-29T12:46:19;6.47;;;4.88;;
57047;SDS011;42934;54.294;18.598;2022-12-29T12:52:16;9.65;;;5.90;;
57047;SDS011;42934;54.294;18.598;2022-12-29T12:55:00;7.47;;;4.82;;
57047;SDS011;42934;54.294;18.598;2022-12-29T12:57:42;7.88;;;5.10;;
57047;SDS011;42934;54.294;18.598;2022-12-29T13:00:20;11.15;;;5.93;;
57047;SDS011;42934;54.294;18.598;2022-12-29T13:02:55;8.82;;;5.43;;
57047;SDS011;42934;54.294;18.598;2022-12-29T13:05:38;8.32;;;5.22;;
57047;SDS011;42934;54.294;18.598;2022-12-29T13:08:34;8.90;;;6.13;;
57047;SDS011;42934;54.294;18.598;2022-12-29T13:11:16;9.98;;;5.65;;
57047;SDS011;42934;54.294;18.598;2022-12-29T13:13:59;9.77;;;5.82;;
57047;SDS011;42934;54.294;18.598;2022-12-29T13:16:41;8.35;;;5.05;;
57047;SDS011;42934;54.294;18.598;2022-12-29T13:19:20;11.90;;;5.43;;
57047;SDS011;42934;54.294;18.598;2022-12-29T13:21:57;8.32;;;5.40;;
57047;SDS011;42934;54.294;18.598;2022-12-29T13:24:38;7.45;;;5.40;;
57047;SDS011;42934;54.294;18.598;2022-12-29T13:27:16;8.85;;;5.55;;
57047;SDS011;42934;54.294;18.598;2022-12-29T13:29:54;11.10;;;5.75;;
57047;SDS011;42934;54.294;18.598;2022-12-29T13:32:33;8.23;;;5.65;;
57047;SDS011;42934;54.294;18.598;2022-12-29T13:35:15;7.53;;;5.18;;
57047;SDS011;42934;54.294;18.598;2022-12-29T13:37:51;9.93;;;6.13;;
57047;SDS011;42934;54.294;18.598;2022-12-29T13:40:26;7.35;;;4.95;;
57047;SDS011;42934;54.294;18.598;2022-12-29T13:43:02;13.18;;;7.45;;
57047;SDS011;42934;54.294;18.598;2022-12-29T13:45:45;13.00;;;7.35;;
57047;SDS011;42934;54.294;18.598;2022-12-29T13:48:35;10.25;;;6.43;;
57047;SDS011;42934;54.294;18.598;2022-12-29T13:51:13;7.75;;;5.85;;
57047;SDS011;42934;54.294;18.598;2022-12-29T13:54:05;9.52;;;6.50;;
57047;SDS011;42934;54.294;18.598;2022-12-29T13:56:49;7.13;;;5.43;;
57047;SDS011;42934;54.294;18.598;2022-12-29T13:59:25;8.48;;;5.50;;
57047;SDS011;42934;54.294;18.598;2022-12-29T14:02:10;10.70;;;5.78;;
57047;SDS011;42934;54.294;18.598;2022-12-29T14:04:58;10.10;;;6.10;;
57047;SDS011;42934;54.294;18.598;2022-12-29T14:07:29;9.75;;;6.05;;
57047;SDS011;42934;54.294;18.598;2022-12-29T14:10:13;11.05;;;6.03;;
57047;SDS011;42934;54.294;18.598;2022-12-29T14:15:33;10.25;;;5.45;;
57047;SDS011;42934;54.294;18.598;2022-12-29T14:18:11;10.95;;;6.13;;
57047;SDS011;42934;54.294;18.598;2022-12-29T14:20:50;8.00;;;5.60;;
57047;SDS011;42934;54.294;18.598;2022-12-29T14:23:26;11.77;;;5.90;;
57047;SDS011;42934;54.294;18.598;2022-12-29T14:26:10;7.93;;;5.22;;
57047;SDS011;42934;54.294;18.598;2022-12-29T14:28:43;8.05;;;6.05;;
57047;SDS011;42934;54.294;18.598;2022-12-29T14:31:33;10.07;;;5.65;;
57047;SDS011;42934;54.294;18.598;2022-12-29T14:37:21;10.15;;;6.70;;
57047;SDS011;42934;54.294;18.598;2022-12-29T14:40:04;9.95;;;6.57;;
57047;SDS011;42934;54.294;18.598;2022-12-29T14:42:51;10.15;;;6.72;;
57047;SDS011;42934;54.294;18.598;2022-12-29T14:45:31;10.82;;;6.65;;
57047;SDS011;42934;54.294;18.598;2022-12-29T14:48:28;10.25;;;6.22;;
57047;SDS011;42934;54.294;18.598;2022-12-29T14:51:21;8.23;;;5.78;;
57047;SDS011;42934;54.294;18.598;2022-12-29T14:57:29;11.13;;;6.60;;
57047;SDS011;42934;54.294;18.598;2022-12-29T15:00:19;9.70;;;6.15;;
57047;SDS011;42934;54.294;18.598;2022-12-29T15:03:06;11.18;;;6.82;;
57047;SDS011;42934;54.294;18.598;2022-12-29T15:05:57;13.90;;;7.50;;
57047;SDS011;42934;54.294;18.598;2022-12-29T15:08:36;14.15;;;7.18;;
57047;SDS011;42934;54.294;18.598;2022-12-29T15:11:09;11.10;;;7.78;;
57047;SDS011;42934;54.294;18.598;2022-12-29T15:13:43;11.98;;;6.97;;
57047;SDS011;42934;54.294;18.598;2022-12-29T15:16:22;12.20;;;7.93;;
57047;SDS011;42934;54.294;18.598;2022-12-29T15:18:55;13.77;;;8.93;;
57047;SDS011;42934;54.294;18.598;2022-12-29T15:21:27;16.02;;;9.60;;
57047;SDS011;42934;54.294;18.598;2022-12-29T15:23:59;16.17;;;9.27;;
57047;SDS011;42934;54.294;18.598;2022-12-29T15:26:36;13.75;;;7.97;;
57047;SDS011;42934;54.294;18.598;2022-12-29T15:29:26;35.22;;;17.50;;
57047;SDS011;42934;54.294;18.598;2022-12-29T15:32:15;28.77;;;13.57;;
57047;SDS011;42934;54.294;18.598;2022-12-29T15:34:49;34.47;;;14.93;;
57047;SDS011;42934;54.294;18.598;2022-12-29T15:37:21;20.15;;;10.35;;
57047;SDS011;42934;54.294;18.598;2022-12-29T15:39:53;27.65;;;14.82;;
57047;SDS011;42934;54.294;18.598;2022-12-29T15:42:33;15.70;;;7.57;;
57047;SDS011;42934;54.294;18.598;2022-12-29T15:45:18;15.63;;;7.95;;
57047;SDS011;42934;54.294;18.598;2022-12-29T15:47:48;61.50;;;27.20;;
57047;SDS011;42934;54.294;18.598;2022-12-29T15:50:26;16.48;;;8.20;;
57047;SDS011;42934;54.294;18.598;2022-12-29T15:52:58;24.58;;;13.20;;
57047;SDS011;42934;54.294;18.598;2022-12-29T15:55:30;23.50;;;12.15;;
57047;SDS011;42934;54.294;18.598;2022-12-29T15:58:03;24.88;;;13.70;;
57047;SDS011;42934;54.294;18.598;2022-12-29T16:00:46;23.20;;;13.20;;
57047;SDS011;42934;54.294;18.598;2022-12-29T16:03:17;19.10;;;12.00;;
57047;SDS011;42934;54.294;18.598;2022-12-29T16:05:53;19.02;;;12.27;;
57047;SDS011;42934;54.294;18.598;2022-12-29T16:08:28;17.67;;;11.23;;